sensor_id;sensor_type;location;lat;lon;timestamp;pressure;altitude;pressure_sealevel;temperature;humidity
46710;BME280;32442;51.514;-0.178;2023-03-01T00:01:30;103000.03;;;21.96;36.19
46710;BME280;32442;51.514;-0.178;2023-03-01T00:03:59;103004.03;;;22.00;36.53
46710;BME280;32442;51.514;-0.178;2023-03-01T00:06:27;103002.31;;;21.99;36.43
46710;BME280;32442;51.514;-0.178;2023-03-01T00:08:54;102999.50;;;21.99;36.34
46710;BME280;32442;51.514;-0.178;2023-03-01T00:11:23;102995.56;;;22.00;36.51
46710;BME280;32442;51.514;-0.178;2023-03-01T00:13:51;103007.94;;;21.99;36.76
46710;BME280;32442;51.514;-0.178;2023-03-01T00:16:20;103006.28;;;21.98;36.66
46710;BME280;32442;51.514;-0.178;2023-03-01T00:18:47;103019.75;;;21.96;36.42
46710;BME280;32442;51.514;-0.178;2023-03-01T00:21:14;103017.78;;;21.96;36.94
46710;BME280;32442;51.514;-0.178;2023-03-01T00:23:41;103022.81;;;21.94;36.85
46710;BME280;32442;51.514;-0.178;2023-03-01T00:26:10;103024.19;;;21.92;37.07
46710;BME280;32442;51.514;-0.178;2023-03-01T00:28:37;103025.28;;;21.91;36.68
46710;BME280;32442;51.514;-0.178;2023-03-01T00:31:05;103020.22;;;21.88;37.21
46710;BME280;32442;51.514;-0.178;2023-03-01T00:33:33;103024.72;;;21.89;36.87
46710;BME280;32442;51.514;-0.178;2023-03-01T00:36:00;103024.41;;;21.85;36.84
46710;BME280;32442;51.514;-0.178;2023-03-01T00:38:27;103019.31;;;21.82;37.31
46710;BME280;32442;51.514;-0.178;2023-03-01T00:40:54;103022.38;;;21.81;37.17
46710;BME280;32442;51.514;-0.178;2023-03-01T00:43:23;103011.66;;;21.78;37.24
46710;BME280;32442;51.514;-0.178;2023-03-01T00:45:50;103016.38;;;21.72;37.17
46710;BME280;32442;51.514;-0.178;2023-03-01T00:48:20;103016.69;;;21.70;37.08
46710;BME280;32442;51.514;-0.178;2023-03-01T00:50:47;103019.50;;;21.70;37.56
46710;BME280;32442;51.514;-0.178;2023-03-01T00:53:17;103010.44;;;21.68;37.27
46710;BME280;32442;51.514;-0.178;2023-03-01T00:55:44;103009.88;;;21.66;37.29
46710;BME280;32442;51.514;-0.178;2023-03-01T00:58:13;102998.28;;;21.63;37.41
46710;BME280;32442;51.514;-0.178;2023-03-01T01:00:40;103001.91;;;21.58;37.79
46710;BME280;32442;51.514;-0.178;2023-03-01T01:03:07;103004.16;;;21.56;37.75
46710;BME280;32442;51.514;-0.178;2023-03-01T01:05:34;102998.47;;;21.51;37.77
46710;BME280;32442;51.514;-0.178;2023-03-01T01:08:02;103004.09;;;21.51;37.99
46710;BME280;32442;51.514;-0.178;2023-03-01T01:10:28;103003.78;;;21.48;38.11
46710;BME280;32442;51.514;-0.178;2023-03-01T01:12:59;103003.78;;;21.48;38.21
46710;BME280;32442;51.514;-0.178;2023-03-01T01:15:26;103006.84;;;21.46;38.21
46710;BME280;32442;51.514;-0.178;2023-03-01T01:17:53;103004.56;;;21.43;37.72
46710;BME280;32442;51.514;-0.178;2023-03-01T01:20:20;103005.94;;;21.41;38.18
46710;BME280;32442;51.514;-0.178;2023-03-01T01:22:47;103002.50;;;21.34;37.85
46710;BME280;32442;51.514;-0.178;2023-03-01T01:25:14;102993.47;;;21.32;37.85
46710;BME280;32442;51.514;-0.178;2023-03-01T01:27:41;102999.03;;;21.26;37.77
46710;BME280;32442;51.514;-0.178;2023-03-01T01:30:08;103000.97;;;21.26;38.16
46710;BME280;32442;51.514;-0.178;2023-03-01T01:32:36;103003.75;;;21.21;37.77
46710;BME280;32442;51.514;-0.178;2023-03-01T01:35:03;103001.75;;;21.16;37.88
46710;BME280;32442;51.514;-0.178;2023-03-01T01:37:32;103000.03;;;21.15;38.15
46710;BME280;32442;51.514;-0.178;2023-03-01T01:40:00;102992.34;;;21.11;38.24
46710;BME280;32442;51.514;-0.178;2023-03-01T01:42:27;102990.03;;;21.08;38.14
46710;BME280;32442;51.514;-0.178;2023-03-01T01:47:32;102989.16;;;21.02;38.32
46710;BME280;32442;51.514;-0.178;2023-03-01T01:49:59;102985.75;;;21.00;37.89
46710;BME280;32442;51.514;-0.178;2023-03-01T01:52:27;102985.97;;;20.94;38.57
46710;BME280;32442;51.514;-0.178;2023-03-01T01:57:29;102977.72;;;20.87;38.32
46710;BME280;32442;51.514;-0.178;2023-03-01T01:59:57;102980.78;;;20.85;38.48
46710;BME280;32442;51.514;-0.178;2023-03-01T02:02:25;102976.00;;;20.86;38.26
46710;BME280;32442;51.514;-0.178;2023-03-01T02:04:53;102961.03;;;20.80;38.52
46710;BME280;32442;51.514;-0.178;2023-03-01T02:07:22;102955.09;;;20.77;38.25
46710;BME280;32442;51.514;-0.178;2023-03-01T02:09:50;102962.19;;;20.79;38.42
46710;BME280;32442;51.514;-0.178;2023-03-01T02:12:21;102955.38;;;20.75;38.61
46710;BME280;32442;51.514;-0.178;2023-03-01T02:14:49;102947.47;;;20.72;38.23
46710;BME280;32442;51.514;-0.178;2023-03-01T02:17:18;102949.38;;;20.67;38.42
46710;BME280;32442;51.514;-0.178;2023-03-01T02:19:50;102953.28;;;20.66;38.37
46710;BME280;32442;51.514;-0.178;2023-03-01T02:27:18;102939.09;;;20.56;38.63
46710;BME280;32442;51.514;-0.178;2023-03-01T02:29:51;102943.53;;;20.52;39.02
46710;BME280;32442;51.514;-0.178;2023-03-01T02:32:17;102942.94;;;20.50;39.19
46710;BME280;32442;51.514;-0.178;2023-03-01T02:34:52;102944.84;;;20.44;39.33
46710;BME280;32442;51.514;-0.178;2023-03-01T02:37:20;102938.63;;;20.42;39.03
46710;BME280;32442;51.514;-0.178;2023-03-01T02:39:53;102929.59;;;20.40;39.36
46710;BME280;32442;51.514;-0.178;2023-03-01T02:42:26;102934.66;;;20.38;39.35
46710;BME280;32442;51.514;-0.178;2023-03-01T02:44:53;102934.56;;;20.33;39.01
46710;BME280;32442;51.514;-0.178;2023-03-01T02:47:20;102938.47;;;20.32;39.03
46710;BME280;32442;51.514;-0.178;2023-03-01T02:49:47;102935.09;;;20.30;39.42
46710;BME280;32442;51.514;-0.178;2023-03-01T02:54:46;102926.28;;;20.26;39.56
46710;BME280;32442;51.514;-0.178;2023-03-01T02:57:13;102918.72;;;20.27;39.58
46710;BME280;32442;51.514;-0.178;2023-03-01T02:59:40;102917.81;;;20.21;39.52
46710;BME280;32442;51.514;-0.178;2023-03-01T03:04:41;102909.31;;;20.16;39.63
46710;BME280;32442;51.514;-0.178;2023-03-01T03:07:07;102910.94;;;20.12;39.85
46710;BME280;32442;51.514;-0.178;2023-03-01T03:09:34;102908.13;;;20.12;39.39
46710;BME280;32442;51.514;-0.178;2023-03-01T03:12:01;102908.38;;;20.11;39.68
46710;BME280;32442;51.514;-0.178;2023-03-01T03:14:28;102904.13;;;20.08;39.60
46710;BME280;32442;51.514;-0.178;2023-03-01T03:16:55;102901.59;;;20.07;39.81
46710;BME280;32442;51.514;-0.178;2023-03-01T03:19:21;102901.00;;;20.05;39.71
46710;BME280;32442;51.514;-0.178;2023-03-01T03:21:50;102893.94;;;20.02;40.02
46710;BME280;32442;51.514;-0.178;2023-03-01T03:24:17;102898.09;;;19.99;40.18
46710;BME280;32442;51.514;-0.178;2023-03-01T03:26:44;102904.00;;;19.98;39.78
46710;BME280;32442;51.514;-0.178;2023-03-01T03:29:11;102891.31;;;19.95;40.22
46710;BME280;32442;51.514;-0.178;2023-03-01T03:31:38;102899.16;;;19.93;39.93
46710;BME280;32442;51.514;-0.178;2023-03-01T03:34:05;102892.09;;;19.91;39.83
46710;BME280;32442;51.514;-0.178;2023-03-01T03:36:32;102890.13;;;19.91;40.08
46710;BME280;32442;51.514;-0.178;2023-03-01T03:38:58;102883.09;;;19.89;40.17
46710;BME280;32442;51.514;-0.178;2023-03-01T03:41:25;102884.44;;;19.86;40.40
46710;BME280;32442;51.514;-0.178;2023-03-01T03:43:52;102881.06;;;19.84;40.18
46710;BME280;32442;51.514;-0.178;2023-03-01T03:46:19;102887.16;;;19.81;40.48
46710;BME280;32442;51.514;-0.178;2023-03-01T03:48:45;102882.69;;;19.80;40.25
46710;BME280;32442;51.514;-0.178;2023-03-01T03:51:13;102883.78;;;19.79;40.58
46710;BME280;32442;51.514;-0.178;2023-03-01T03:53:41;102876.72;;;19.77;40.43
46710;BME280;32442;51.514;-0.178;2023-03-01T03:56:08;102880.03;;;19.74;40.24
46710;BME280;32442;51.514;-0.178;2023-03-01T03:58:35;102874.66;;;19.72;40.61
46710;BME280;32442;51.514;-0.178;2023-03-01T04:01:02;102876.63;;;19.72;40.47
46710;BME280;32442;51.514;-0.178;2023-03-01T04:03:31;102865.94;;;19.69;40.49
46710;BME280;32442;51.514;-0.178;2023-03-01T04:05:58;102867.31;;;19.66;40.49
46710;BME280;32442;51.514;-0.178;2023-03-01T04:08:26;102864.75;;;19.65;40.73
46710;BME280;32442;51.514;-0.178;2023-03-01T04:10:57;102868.66;;;19.64;40.96
46710;BME280;32442;51.514;-0.178;2023-03-01T04:13:24;102871.13;;;19.60;41.07
46710;BME280;32442;51.514;-0.178;2023-03-01T04:15:52;102862.09;;;19.58;40.63
46710;BME280;32442;51.514;-0.178;2023-03-01T04:18:20;102855.06;;;19.56;41.14
46710;BME280;32442;51.514;-0.178;2023-03-01T04:20:47;102859.81;;;19.55;41.17
46710;BME280;32442;51.514;-0.178;2023-03-01T04:23:15;102848.03;;;19.53;41.12
46710;BME280;32442;51.514;-0.178;2023-03-01T04:25:45;102853.63;;;19.53;41.03
46710;BME280;32442;51.514;-0.178;2023-03-01T04:28:13;102849.38;;;19.50;40.96
46710;BME280;32442;51.514;-0.178;2023-03-01T04:30:39;102846.56;;;19.50;41.01
46710;BME280;32442;51.514;-0.178;2023-03-01T04:33:08;102847.94;;;19.48;41.03
46710;BME280;32442;51.514;-0.178;2023-03-01T04:35:36;102846.22;;;19.47;41.34
46710;BME280;32442;51.514;-0.178;2023-03-01T04:38:03;102849.28;;;19.45;41.22
46710;BME280;32442;51.514;-0.178;2023-03-01T04:40:31;102846.75;;;19.44;41.23
46710;BME280;32442;51.514;-0.178;2023-03-01T04:42:58;102839.41;;;19.43;41.26
46710;BME280;32442;51.514;-0.178;2023-03-01T04:45:27;102843.09;;;19.43;40.96
46710;BME280;32442;51.514;-0.178;2023-03-01T04:47:56;102837.09;;;19.40;41.38
46710;BME280;32442;51.514;-0.178;2023-03-01T04:50:24;102841.25;;;19.37;41.29
46710;BME280;32442;51.514;-0.178;2023-03-01T04:52:52;102842.38;;;19.36;41.41
46710;BME280;32442;51.514;-0.178;2023-03-01T04:55:19;102837.84;;;19.35;41.22
46710;BME280;32442;51.514;-0.178;2023-03-01T04:57:46;102840.06;;;19.33;41.13
46710;BME280;32442;51.514;-0.178;2023-03-01T05:00:13;102831.91;;;19.32;41.42
46710;BME280;32442;51.514;-0.178;2023-03-01T05:02:43;102830.22;;;19.31;41.48
46710;BME280;32442;51.514;-0.178;2023-03-01T05:05:10;102829.63;;;19.29;41.37
46710;BME280;32442;51.514;-0.178;2023-03-01T05:07:37;102829.63;;;19.29;41.17
46710;BME280;32442;51.514;-0.178;2023-03-01T05:10:03;102822.56;;;19.26;41.47
46710;BME280;32442;51.514;-0.178;2023-03-01T05:12:30;102826.22;;;19.27;41.16
46710;BME280;32442;51.514;-0.178;2023-03-01T05:14:57;102826.50;;;19.25;41.33
46710;BME280;32442;51.514;-0.178;2023-03-01T05:17:26;102838.56;;;19.26;41.51
46710;BME280;32442;51.514;-0.178;2023-03-01T05:19:53;102824.19;;;19.22;41.31
46710;BME280;32442;51.514;-0.178;2023-03-01T05:22:24;102828.09;;;19.21;41.26
46710;BME280;32442;51.514;-0.178;2023-03-01T05:24:51;102827.50;;;19.19;41.63
46710;BME280;32442;51.514;-0.178;2023-03-01T05:27:19;102829.44;;;19.19;41.12
46710;BME280;32442;51.514;-0.178;2023-03-01T05:29:50;102828.03;;;19.16;41.24
46710;BME280;32442;51.514;-0.178;2023-03-01T05:32:17;102817.06;;;19.15;41.45
46710;BME280;32442;51.514;-0.178;2023-03-01T05:34:44;102820.09;;;19.13;41.28
46710;BME280;32442;51.514;-0.178;2023-03-01T05:37:14;102816.44;;;19.13;41.31
46710;BME280;32442;51.514;-0.178;2023-03-01T05:39:41;102814.75;;;19.12;41.22
46710;BME280;32442;51.514;-0.178;2023-03-01T05:42:10;102807.47;;;19.10;41.52
46710;BME280;32442;51.514;-0.178;2023-03-01T05:44:37;102809.66;;;19.08;41.69
46710;BME280;32442;51.514;-0.178;2023-03-01T05:47:04;102809.94;;;19.07;41.59
46710;BME280;32442;51.514;-0.178;2023-03-01T05:49:31;102804.56;;;19.05;41.40
46710;BME280;32442;51.514;-0.178;2023-03-01T05:51:58;102811.25;;;19.04;41.66
46710;BME280;32442;51.514;-0.178;2023-03-01T05:54:25;102810.69;;;19.02;41.39
46710;BME280;32442;51.514;-0.178;2023-03-01T05:56:52;102813.47;;;19.02;41.74
46710;BME280;32442;51.514;-0.178;2023-03-01T05:59:19;102806.19;;;19.01;41.75
46710;BME280;32442;51.514;-0.178;2023-03-01T06:01:45;102806.69;;;18.98;41.56
46710;BME280;32442;51.514;-0.178;2023-03-01T06:04:12;102804.97;;;18.97;41.68
46710;BME280;32442;51.514;-0.178;2023-03-01T06:06:41;102811.94;;;18.95;41.77
46710;BME280;32442;51.514;-0.178;2023-03-01T06:09:08;102811.94;;;18.95;41.87
46710;BME280;32442;51.514;-0.178;2023-03-01T06:11:36;102808.53;;;18.93;42.17
46710;BME280;32442;51.514;-0.178;2023-03-01T06:14:03;102811.59;;;18.91;42.12
46710;BME280;32442;51.514;-0.178;2023-03-01T06:16:30;102807.94;;;18.91;41.94
46710;BME280;32442;51.514;-0.178;2023-03-01T06:18:58;102810.16;;;18.89;41.94
46710;BME280;32442;51.514;-0.178;2023-03-01T06:21:27;102811.25;;;18.88;42.16
46710;BME280;32442;51.514;-0.178;2023-03-01T06:23:53;102811.50;;;18.86;42.15
46710;BME280;32442;51.514;-0.178;2023-03-01T06:26:20;102811.75;;;18.85;41.92
46710;BME280;32442;51.514;-0.178;2023-03-01T06:28:47;102819.31;;;18.84;41.93
46710;BME280;32442;51.514;-0.178;2023-03-01T06:31:14;102813.34;;;18.81;42.13
46710;BME280;32442;51.514;-0.178;2023-03-01T06:33:41;102819.78;;;18.81;42.29
46710;BME280;32442;51.514;-0.178;2023-03-01T06:36:08;102821.16;;;18.79;42.00
46710;BME280;32442;51.514;-0.178;2023-03-01T06:38:36;102827.00;;;18.77;42.28
46710;BME280;32442;51.514;-0.178;2023-03-01T06:41:03;102832.00;;;18.75;42.20
46710;BME280;32442;51.514;-0.178;2023-03-01T06:43:30;102831.16;;;18.75;42.05
46710;BME280;32442;51.514;-0.178;2023-03-01T06:45:57;102822.16;;;18.73;42.15
46710;BME280;32442;51.514;-0.178;2023-03-01T06:48:24;102835.28;;;18.72;42.25
46710;BME280;32442;51.514;-0.178;2023-03-01T06:50:51;102824.72;;;18.74;42.55
46710;BME280;32442;51.514;-0.178;2023-03-01T06:53:20;102821.06;;;18.74;42.13
46710;BME280;32442;51.514;-0.178;2023-03-01T06:55:47;102830.81;;;18.71;42.53
46710;BME280;32442;51.514;-0.178;2023-03-01T06:58:16;102829.78;;;18.77;42.24
46710;BME280;32442;51.514;-0.178;2023-03-01T07:00:43;102829.91;;;18.82;42.17
46710;BME280;32442;51.514;-0.178;2023-03-01T07:03:10;102831.44;;;18.90;42.81
46710;BME280;32442;51.514;-0.178;2023-03-01T07:05:39;102826.69;;;18.90;42.22
46710;BME280;32442;51.514;-0.178;2023-03-01T07:08:06;102834.34;;;18.95;42.51
46710;BME280;32442;51.514;-0.178;2023-03-01T07:10:33;102832.25;;;19.02;42.84
46710;BME280;32442;51.514;-0.178;2023-03-01T07:13:00;102836.00;;;19.07;42.49
46710;BME280;32442;51.514;-0.178;2023-03-01T07:15:27;102832.75;;;19.16;42.98
46710;BME280;32442;51.514;-0.178;2023-03-01T07:17:54;102838.38;;;19.16;43.09
46710;BME280;32442;51.514;-0.178;2023-03-01T07:20:23;102832.91;;;19.09;42.44
46710;BME280;32442;51.514;-0.178;2023-03-01T07:22:52;102842.94;;;19.22;41.41
46710;BME280;32442;51.514;-0.178;2023-03-01T07:25:19;102840.00;;;19.28;41.08
46710;BME280;32442;51.514;-0.178;2023-03-01T07:30:17;102833.94;;;19.36;40.74
46710;BME280;32442;51.514;-0.178;2023-03-01T07:32:43;102839.66;;;19.41;40.47
46710;BME280;32442;51.514;-0.178;2023-03-01T07:35:12;102845.63;;;19.45;40.36
46710;BME280;32442;51.514;-0.178;2023-03-01T07:37:38;102843.44;;;19.47;40.15
46710;BME280;32442;51.514;-0.178;2023-03-01T07:40:06;102839.34;;;19.54;40.22
46710;BME280;32442;51.514;-0.178;2023-03-01T07:42:33;102841.38;;;19.59;40.40
46710;BME280;32442;51.514;-0.178;2023-03-01T07:45:00;102826.84;;;19.62;39.86
46710;BME280;32442;51.514;-0.178;2023-03-01T07:47:27;102834.75;;;19.65;39.94
46710;BME280;32442;51.514;-0.178;2023-03-01T07:49:54;102824.47;;;19.71;39.59
46710;BME280;32442;51.514;-0.178;2023-03-01T07:52:21;102829.31;;;19.75;39.50
46710;BME280;32442;51.514;-0.178;2023-03-01T07:54:47;102824.88;;;19.79;40.04
46710;BME280;32442;51.514;-0.178;2023-03-01T07:57:17;102820.69;;;19.82;39.49
46710;BME280;32442;51.514;-0.178;2023-03-01T07:59:44;102820.19;;;19.85;39.33
46710;BME280;32442;51.514;-0.178;2023-03-01T08:02:11;102817.72;;;19.88;39.35
46710;BME280;32442;51.514;-0.178;2023-03-01T08:04:38;102823.91;;;19.90;39.39
46710;BME280;32442;51.514;-0.178;2023-03-01T08:07:05;102831.53;;;19.95;39.34
46710;BME280;32442;51.514;-0.178;2023-03-01T08:09:37;102836.38;;;19.99;38.83
46710;BME280;32442;51.514;-0.178;2023-03-01T08:12:05;102827.47;;;20.03;39.07
46710;BME280;32442;51.514;-0.178;2023-03-01T08:14:32;102824.97;;;20.06;38.84
46710;BME280;32442;51.514;-0.178;2023-03-01T08:16:59;102828.97;;;20.10;38.65
46710;BME280;32442;51.514;-0.178;2023-03-01T08:19:26;102826.22;;;20.15;38.87
46710;BME280;32442;51.514;-0.178;2023-03-01T08:21:54;102821.78;;;20.19;38.41
46710;BME280;32442;51.514;-0.178;2023-03-01T08:24:21;102809.78;;;20.24;38.51
46710;BME280;32442;51.514;-0.178;2023-03-01T08:26:49;102813.75;;;20.28;38.23
46710;BME280;32442;51.514;-0.178;2023-03-01T08:29:16;102807.63;;;20.31;38.41
46710;BME280;32442;51.514;-0.178;2023-03-01T08:31:43;102801.53;;;20.34;38.29
46710;BME280;32442;51.514;-0.178;2023-03-01T08:34:12;102807.19;;;20.39;38.11
46710;BME280;32442;51.514;-0.178;2023-03-01T08:36:40;102810.09;;;20.49;38.45
46710;BME280;32442;51.514;-0.178;2023-03-01T08:39:09;102812.66;;;20.51;38.60
46710;BME280;32442;51.514;-0.178;2023-03-01T08:41:37;102806.00;;;20.57;38.25
46710;BME280;32442;51.514;-0.178;2023-03-01T08:44:07;102809.38;;;20.59;38.46
46710;BME280;32442;51.514;-0.178;2023-03-01T08:46:35;102800.69;;;20.60;38.03
46710;BME280;32442;51.514;-0.178;2023-03-01T08:49:03;102800.16;;;20.63;37.78
46710;BME280;32442;51.514;-0.178;2023-03-01T08:51:30;102802.47;;;20.66;37.55
46710;BME280;32442;51.514;-0.178;2023-03-01T08:53:59;102799.13;;;20.69;37.39
46710;BME280;32442;51.514;-0.178;2023-03-01T08:56:26;102796.91;;;20.71;37.54
46710;BME280;32442;51.514;-0.178;2023-03-01T08:58:52;102793.25;;;20.76;37.23
46710;BME280;32442;51.514;-0.178;2023-03-01T09:01:20;102797.53;;;20.78;37.02
46710;BME280;32442;51.514;-0.178;2023-03-01T09:03:47;102800.66;;;20.82;37.12
46710;BME280;32442;51.514;-0.178;2023-03-01T09:06:14;102799.53;;;20.83;36.79
46710;BME280;32442;51.514;-0.178;2023-03-01T09:08:43;102790.84;;;20.84;37.11
46710;BME280;32442;51.514;-0.178;2023-03-01T09:11:11;102789.22;;;20.89;37.12
46710;BME280;32442;51.514;-0.178;2023-03-01T09:13:38;102786.09;;;20.90;36.88
46710;BME280;32442;51.514;-0.178;2023-03-01T09:16:10;102792.06;;;20.94;37.13
46710;BME280;32442;51.514;-0.178;2023-03-01T09:18:37;102792.88;;;20.94;36.72
46710;BME280;32442;51.514;-0.178;2023-03-01T09:21:07;102780.81;;;20.94;36.42
46710;BME280;32442;51.514;-0.178;2023-03-01T09:23:35;102777.72;;;20.95;36.82
46710;BME280;32442;51.514;-0.178;2023-03-01T09:26:03;102771.00;;;20.96;36.49
46710;BME280;32442;51.514;-0.178;2023-03-01T09:28:30;102774.06;;;20.95;36.23
46710;BME280;32442;51.514;-0.178;2023-03-01T09:30:59;102773.22;;;20.94;36.45
46710;BME280;32442;51.514;-0.178;2023-03-01T09:33:29;102763.97;;;20.94;36.61
46710;BME280;32442;51.514;-0.178;2023-03-01T09:35:57;102774.63;;;20.92;36.28
46710;BME280;32442;51.514;-0.178;2023-03-01T09:38:24;102766.13;;;20.86;36.24
46710;BME280;32442;51.514;-0.178;2023-03-01T09:40:52;102766.38;;;20.85;36.18
46710;BME280;32442;51.514;-0.178;2023-03-01T09:43:23;102768.09;;;20.86;35.99
46710;BME280;32442;51.514;-0.178;2023-03-01T09:45:53;102766.09;;;20.81;36.33
46710;BME280;32442;51.514;-0.178;2023-03-01T09:48:23;102761.00;;;20.78;36.45
46710;BME280;32442;51.514;-0.178;2023-03-01T09:50:51;102762.38;;;20.76;36.48
46710;BME280;32442;51.514;-0.178;2023-03-01T09:53:19;102751.97;;;20.71;36.06
46710;BME280;32442;51.514;-0.178;2023-03-01T10:00:47;102753.56;;;20.67;36.23
46710;BME280;32442;51.514;-0.178;2023-03-01T10:05:47;102753.88;;;20.66;36.25
46710;BME280;32442;51.514;-0.178;2023-03-01T10:10:47;102747.41;;;20.65;36.09
46710;BME280;32442;51.514;-0.178;2023-03-01T10:15:47;102738.91;;;20.60;36.53
46710;BME280;32442;51.514;-0.178;2023-03-01T10:18:16;102737.22;;;20.59;36.52
46710;BME280;32442;51.514;-0.178;2023-03-01T10:20:50;102734.09;;;20.56;36.44
46710;BME280;32442;51.514;-0.178;2023-03-01T10:23:19;102745.00;;;20.52;36.52
46710;BME280;32442;51.514;-0.178;2023-03-01T10:25:51;102745.53;;;20.49;36.57
46710;BME280;32442;51.514;-0.178;2023-03-01T10:30:52;102747.16;;;20.45;36.54
46710;BME280;32442;51.514;-0.178;2023-03-01T10:33:22;102742.94;;;20.42;36.37
46710;BME280;32442;51.514;-0.178;2023-03-01T10:35:50;102754.72;;;20.39;36.42
46710;BME280;32442;51.514;-0.178;2023-03-01T10:38:18;102738.38;;;20.36;36.45
46710;BME280;32442;51.514;-0.178;2023-03-01T10:43:17;102733.28;;;20.33;36.55
46710;BME280;32442;51.514;-0.178;2023-03-01T10:45:44;102733.19;;;20.28;36.77
46710;BME280;32442;51.514;-0.178;2023-03-01T10:48:13;102735.69;;;20.25;36.56
46710;BME280;32442;51.514;-0.178;2023-03-01T10:50:41;102732.28;;;20.23;36.52
46710;BME280;32442;51.514;-0.178;2023-03-01T10:55:39;102723.81;;;20.18;36.72
46710;BME280;32442;51.514;-0.178;2023-03-01T11:00:33;102716.16;;;20.13;36.78
46710;BME280;32442;51.514;-0.178;2023-03-01T11:03:13;102721.72;;;20.08;36.52
46710;BME280;32442;51.514;-0.178;2023-03-01T11:08:10;102704.56;;;20.05;36.79
46710;BME280;32442;51.514;-0.178;2023-03-01T11:10:38;102703.16;;;20.02;36.86
46710;BME280;32442;51.514;-0.178;2023-03-01T11:13:07;102695.25;;;19.99;36.57
46710;BME280;32442;51.514;-0.178;2023-03-01T11:15:34;102700.81;;;19.94;37.00
46710;BME280;32442;51.514;-0.178;2023-03-01T11:18:01;102696.31;;;19.93;36.69
46710;BME280;32442;51.514;-0.178;2023-03-01T11:20:39;102689.84;;;19.92;36.68
46710;BME280;32442;51.514;-0.178;2023-03-01T11:23:09;102695.69;;;19.91;36.99
46710;BME280;32442;51.514;-0.178;2023-03-01T11:25:38;102684.47;;;19.91;36.74
46710;BME280;32442;51.514;-0.178;2023-03-01T11:28:06;102691.78;;;19.92;37.04
46710;BME280;32442;51.514;-0.178;2023-03-01T11:30:39;102684.16;;;19.87;36.79
46710;BME280;32442;51.514;-0.178;2023-03-01T11:35:43;102668.13;;;19.83;36.82
46710;BME280;32442;51.514;-0.178;2023-03-01T11:38:15;102667.28;;;19.82;36.96
46710;BME280;32442;51.514;-0.178;2023-03-01T11:40:44;102662.19;;;19.79;37.28
46710;BME280;32442;51.514;-0.178;2023-03-01T11:43:16;102659.06;;;19.76;37.30
46710;BME280;32442;51.514;-0.178;2023-03-01T11:50:46;102657.84;;;19.67;37.04
46710;BME280;32442;51.514;-0.178;2023-03-01T11:58:18;102643.16;;;19.60;37.17
46710;BME280;32442;51.514;-0.178;2023-03-01T12:20:46;102606.50;;;19.44;37.68
46710;BME280;32442;51.514;-0.178;2023-03-01T12:50:52;102564.19;;;19.46;37.89
46710;BME280;32442;51.514;-0.178;2023-03-01T12:55:53;102541.91;;;19.56;37.72
46710;BME280;32442;51.514;-0.178;2023-03-01T13:03:29;102516.84;;;19.76;37.28
46710;BME280;32442;51.514;-0.178;2023-03-01T13:11:01;102517.66;;;19.98;37.18
46710;BME280;32442;51.514;-0.178;2023-03-01T13:13:29;102514.88;;;20.04;37.44
46710;BME280;32442;51.514;-0.178;2023-03-01T13:15:56;102514.66;;;20.10;37.06
46710;BME280;32442;51.514;-0.178;2023-03-01T13:20:52;102515.03;;;20.19;36.96
46710;BME280;32442;51.514;-0.178;2023-03-01T13:30:48;102494.97;;;20.37;36.76
46710;BME280;32442;51.514;-0.178;2023-03-01T13:35:45;102491.97;;;20.44;36.75
46710;BME280;32442;51.514;-0.178;2023-03-01T13:45:42;102494.84;;;20.59;36.63
46710;BME280;32442;51.514;-0.178;2023-03-01T13:48:12;102495.19;;;20.62;36.58
46710;BME280;32442;51.514;-0.178;2023-03-01T13:50:45;102494.34;;;20.67;36.42
46710;BME280;32442;51.514;-0.178;2023-03-01T13:53:15;102484.53;;;20.69;36.08
46710;BME280;32442;51.514;-0.178;2023-03-01T13:55:45;102482.31;;;20.71;36.28
46710;BME280;32442;51.514;-0.178;2023-03-01T14:00:43;102481.75;;;20.74;36.17
46710;BME280;32442;51.514;-0.178;2023-03-01T14:03:12;102476.13;;;20.74;36.01
46710;BME280;32442;51.514;-0.178;2023-03-01T14:05:40;102473.88;;;20.76;36.10
46710;BME280;32442;51.514;-0.178;2023-03-01T14:10:41;102456.50;;;20.79;35.73
46710;BME280;32442;51.514;-0.178;2023-03-01T14:15:42;102447.19;;;20.74;35.38
46710;BME280;32442;51.514;-0.178;2023-03-01T14:20:44;102443.56;;;20.78;35.35
46710;BME280;32442;51.514;-0.178;2023-03-01T14:23:20;102437.09;;;20.78;35.73
46710;BME280;32442;51.514;-0.178;2023-03-01T14:30:44;102433.41;;;20.72;35.95
46710;BME280;32442;51.514;-0.178;2023-03-01T14:35:42;102434.53;;;20.66;36.04
46710;BME280;32442;51.514;-0.178;2023-03-01T14:38:19;102420.75;;;20.65;35.83
46710;BME280;32442;51.514;-0.178;2023-03-01T14:40:47;102421.31;;;20.62;35.70
46710;BME280;32442;51.514;-0.178;2023-03-01T14:43:18;102415.94;;;20.60;35.57
46710;BME280;32442;51.514;-0.178;2023-03-01T14:45:47;102415.38;;;20.58;35.54
46710;BME280;32442;51.514;-0.178;2023-03-01T14:48:15;102413.69;;;20.57;35.59
46710;BME280;32442;51.514;-0.178;2023-03-01T14:50:43;102408.63;;;20.54;35.70
46710;BME280;32442;51.514;-0.178;2023-03-01T14:53:15;102402.16;;;20.54;36.05
46710;BME280;32442;51.514;-0.178;2023-03-01T14:55:44;102403.56;;;20.51;35.78
46710;BME280;32442;51.514;-0.178;2023-03-01T14:58:14;102397.34;;;20.49;35.84
46710;BME280;32442;51.514;-0.178;2023-03-01T15:00:46;102388.13;;;20.49;36.01
46710;BME280;32442;51.514;-0.178;2023-03-01T15:03:20;102388.63;;;20.46;36.07
46710;BME280;32442;51.514;-0.178;2023-03-01T15:05:50;102386.69;;;20.46;35.62
46710;BME280;32442;51.514;-0.178;2023-03-01T15:08:18;102385.78;;;20.40;35.79
46710;BME280;32442;51.514;-0.178;2023-03-01T15:15:45;102377.34;;;20.35;35.66
46710;BME280;32442;51.514;-0.178;2023-03-01T15:18:17;102378.50;;;20.34;35.70
46710;BME280;32442;51.514;-0.178;2023-03-01T15:20:45;102376.78;;;20.33;36.09
46710;BME280;32442;51.514;-0.178;2023-03-01T15:23:17;102370.59;;;20.31;35.79